Angora, Nebraska
Current Conditions -  °F | °C
As of 8:53 AM on Thursday 27 Nov 2014 (Local Time) from KAIA Reporting Station
Few Clouds Few Clouds  
Wind Chill: 19°   Ceiling: Unl
Heat Index: 27°   Visibility: 10mi
Dew Point: 24°   Wind: 8mph
Humidity: 89%   Direction: 180°S
Pressure: 30.12"   Gusts: NA
Location:  41.85°N, 103.13°W
Report Text: KAIA 271553Z AUTO 18007KT 10SM FEW120 M03/M04 A3012 RMK AO2 SLP235 T10281044
Loading
Personal Weather Stations






























Interactive Weather Map New forecast layout! Learn more

10-Day Weather Forecast

Advertisements
Track Severe Weather on mobile